createdAt,value
2019-01-10T00:00:37.053Z,5.87
2019-01-10T00:03:10.250Z,4.90
2019-01-10T00:05:41.180Z,6.47
2019-01-10T00:08:13.355Z,5.57
2019-01-10T00:10:44.313Z,4.90
2019-01-10T00:13:15.167Z,5.37
2019-01-10T00:15:45.979Z,6.17
2019-01-10T00:18:16.879Z,5.47
2019-01-10T00:20:47.266Z,6.70
2019-01-10T00:23:18.181Z,5.70
2019-01-10T00:25:49.125Z,5.97
2019-01-10T00:28:20.040Z,5.63
2019-01-10T00:30:50.520Z,6.60
2019-01-10T00:33:22.813Z,6.77
2019-01-10T00:35:54.406Z,15.50
2019-01-10T00:38:25.293Z,12.63
2019-01-10T00:40:58.428Z,7.97
2019-01-10T00:43:29.287Z,13.47
2019-01-10T00:46:00.295Z,12.00
2019-01-10T00:48:33.463Z,6.80
2019-01-10T00:51:05.674Z,5.90
2019-01-10T00:53:37.571Z,6.63
2019-01-10T00:56:08.373Z,6.87
2019-01-10T00:58:40.382Z,6.70
2019-01-10T01:01:10.797Z,7.47
2019-01-10T01:03:41.435Z,8.07
2019-01-10T01:06:15.658Z,6.87
2019-01-10T01:08:49.493Z,10.03
2019-01-10T01:11:21.474Z,8.73
2019-01-10T01:13:52.595Z,8.17
2019-01-10T01:16:23.556Z,8.20
2019-01-10T01:18:54.537Z,9.33
2019-01-10T01:21:24.945Z,8.43
2019-01-10T01:23:55.528Z,8.60
2019-01-10T01:26:27.518Z,7.20
2019-01-10T01:29:00.623Z,9.60
2019-01-10T01:31:31.542Z,8.90
2019-01-10T01:34:04.590Z,8.40
2019-01-10T01:36:35.554Z,8.87
2019-01-10T01:39:09.511Z,9.40
2019-01-10T01:41:39.966Z,9.47
2019-01-10T01:44:10.311Z,9.00
2019-01-10T01:46:40.933Z,9.77
2019-01-10T01:49:11.628Z,9.27
2019-01-10T01:51:42.158Z,9.00
2019-01-10T01:54:12.668Z,10.17
2019-01-10T01:56:43.425Z,11.13
2019-01-10T01:59:14.045Z,9.93
2019-01-10T02:01:44.629Z,10.53
2019-01-10T02:04:16.313Z,8.80
2019-01-10T02:06:48.685Z,10.17
2019-01-10T02:09:19.645Z,9.13
2019-01-10T02:11:51.204Z,8.87
2019-01-10T02:14:23.805Z,13.07
2019-01-10T02:16:55.737Z,9.33
2019-01-10T02:19:27.813Z,9.00
2019-01-10T02:21:59.874Z,8.83
2019-01-10T02:24:32.867Z,9.77
2019-01-10T02:27:03.777Z,9.70
2019-01-10T02:29:35.160Z,10.47
2019-01-10T02:32:07.480Z,9.30
2019-01-10T02:34:38.000Z,9.47
2019-01-10T02:37:08.923Z,8.30
2019-01-10T02:39:40.840Z,9.00
2019-01-10T02:42:11.536Z,9.23
2019-01-10T02:44:42.003Z,9.93
2019-01-10T02:47:12.613Z,9.23
2019-01-10T02:49:43.245Z,9.43
2019-01-10T02:52:13.815Z,9.30
2019-01-10T02:54:44.417Z,8.63
2019-01-10T02:57:14.875Z,10.10
2019-01-10T02:59:45.761Z,10.00
2019-01-10T03:02:16.428Z,10.40
2019-01-10T03:04:46.914Z,11.00
2019-01-10T03:07:17.628Z,10.00
2019-01-10T03:09:48.266Z,11.27
2019-01-10T03:12:18.965Z,10.67
2019-01-10T03:14:49.665Z,10.70
2019-01-10T03:17:20.046Z,10.77
2019-01-10T03:19:51.096Z,10.70
2019-01-10T03:22:21.944Z,10.63
2019-01-10T03:24:52.528Z,11.10
2019-01-10T03:27:23.077Z,11.73
2019-01-10T03:29:53.981Z,12.03
2019-01-10T03:32:24.833Z,11.50
2019-01-10T03:34:55.692Z,10.77
2019-01-10T03:37:28.304Z,11.67
2019-01-10T03:40:00.329Z,11.43
2019-01-10T03:42:30.908Z,11.10
2019-01-10T03:45:04.387Z,12.30
2019-01-10T03:47:35.085Z,11.80
2019-01-10T03:50:08.950Z,14.00
2019-01-10T03:52:41.282Z,11.43
2019-01-10T03:55:14.540Z,13.93
2019-01-10T03:57:45.270Z,13.53
2019-01-10T04:00:24.264Z,13.27
2019-01-10T04:02:57.513Z,15.27
2019-01-10T04:05:30.171Z,12.63
2019-01-10T04:08:01.136Z,12.87
2019-01-10T04:10:31.566Z,12.17
2019-01-10T04:13:02.203Z,13.00
2019-01-10T04:15:33.322Z,15.20
2019-01-10T04:18:04.189Z,14.20
2019-01-10T04:20:37.258Z,14.13
2019-01-10T04:23:08.346Z,15.67
2019-01-10T04:25:38.700Z,14.33
2019-01-10T04:28:09.889Z,19.33
2019-01-10T04:30:40.660Z,16.53
2019-01-10T04:33:11.325Z,21.43
2019-01-10T04:35:41.989Z,18.37
2019-01-10T04:38:12.365Z,16.83
2019-01-10T04:40:43.328Z,21.43
2019-01-10T04:43:14.093Z,18.90
2019-01-10T04:45:44.508Z,20.57
2019-01-10T04:48:15.471Z,20.80
2019-01-10T04:50:46.005Z,20.87
2019-01-10T04:53:17.372Z,20.53
2019-01-10T04:55:49.408Z,23.80
2019-01-10T04:58:20.548Z,22.30
2019-01-10T05:00:53.464Z,23.77
2019-01-10T05:03:24.501Z,21.90
2019-01-10T05:05:54.902Z,20.23
2019-01-10T05:08:25.555Z,23.20
2019-01-10T05:10:58.440Z,24.93
2019-01-10T05:13:29.568Z,21.67
2019-01-10T05:16:02.558Z,23.33
2019-01-10T05:18:33.602Z,24.70
2019-01-10T05:21:06.503Z,20.23
2019-01-10T05:23:37.429Z,24.30
2019-01-10T05:26:07.956Z,24.90
2019-01-10T05:28:38.378Z,21.60
2019-01-10T05:31:09.293Z,24.70
2019-01-10T05:33:39.859Z,21.00
2019-01-10T05:36:10.565Z,24.50
2019-01-10T05:38:41.152Z,24.70
2019-01-10T05:41:11.928Z,23.97
2019-01-10T05:43:42.551Z,22.80
2019-01-10T05:46:13.413Z,26.50
2019-01-10T05:48:47.248Z,22.50
2019-01-10T05:51:17.692Z,24.83
2019-01-10T05:53:48.647Z,24.00
2019-01-10T05:56:21.811Z,25.07
2019-01-10T05:58:52.820Z,25.70
2019-01-10T06:01:23.937Z,24.63
2019-01-10T06:03:54.746Z,24.00
2019-01-10T06:06:27.871Z,23.67
2019-01-10T06:08:58.726Z,23.23
2019-01-10T06:11:31.415Z,24.73
2019-01-10T06:14:02.852Z,21.80
2019-01-10T06:16:33.825Z,27.23
2019-01-10T06:19:06.787Z,26.57
2019-01-10T06:21:37.801Z,24.33
2019-01-10T06:24:08.483Z,23.43
2019-01-10T06:26:38.964Z,24.60
2019-01-10T06:29:09.711Z,27.10
2019-01-10T06:31:40.382Z,23.27
2019-01-10T06:34:10.747Z,25.30
2019-01-10T06:36:41.761Z,27.17
2019-01-10T06:39:12.297Z,25.00
2019-01-10T06:41:43.104Z,27.90
2019-01-10T06:44:13.638Z,27.90
2019-01-10T06:46:44.299Z,23.53
2019-01-10T06:49:14.958Z,29.53
2019-01-10T06:51:45.678Z,31.73
2019-01-10T06:54:16.067Z,28.17
2019-01-10T06:56:47.116Z,29.67
2019-01-10T06:59:17.787Z,25.33
2019-01-10T07:01:48.624Z,24.80
2019-01-10T07:04:19.004Z,29.50
2019-01-10T07:06:49.950Z,24.67
2019-01-10T07:09:20.671Z,27.13
2019-01-10T07:11:51.594Z,29.37
2019-01-10T07:14:22.153Z,26.73
2019-01-10T07:16:53.770Z,31.83
2019-01-10T07:19:45.575Z,35.97
2019-01-10T07:22:17.186Z,34.97
2019-01-10T07:24:56.360Z,31.17
2019-01-10T07:27:28.159Z,34.40
2019-01-10T07:29:59.694Z,34.57
2019-01-10T07:32:32.196Z,29.27
2019-01-10T07:35:08.423Z,33.70
2019-01-10T07:37:38.823Z,32.73
2019-01-10T07:40:15.762Z,30.70
2019-01-10T07:42:46.316Z,32.77
2019-01-10T07:45:20.506Z,30.37
2019-01-10T07:47:51.525Z,31.70
2019-01-10T07:50:35.493Z,32.77
2019-01-10T07:53:08.850Z,32.60
2019-01-10T07:55:41.560Z,35.43
2019-01-10T07:58:12.488Z,28.40
2019-01-10T08:00:44.152Z,28.70
2019-01-10T08:03:15.335Z,26.67
2019-01-10T08:05:47.240Z,24.87
2019-01-10T08:08:18.211Z,27.00
2019-01-10T08:10:50.458Z,29.63
2019-01-10T08:13:22.352Z,29.00
2019-01-10T08:15:53.357Z,24.80
2019-01-10T08:18:24.287Z,23.70
2019-01-10T08:20:55.243Z,26.07
2019-01-10T08:23:25.784Z,31.40
2019-01-10T08:25:56.356Z,25.80
2019-01-10T08:28:27.022Z,28.43
2019-01-10T08:30:57.507Z,25.80
2019-01-10T08:33:28.105Z,25.23
2019-01-10T08:35:58.459Z,27.67
2019-01-10T08:38:29.263Z,26.60
2019-01-10T08:40:59.809Z,23.70
2019-01-10T08:43:31.766Z,27.30
2019-01-10T08:46:04.489Z,25.43
2019-01-10T08:48:37.440Z,29.33
2019-01-10T08:51:08.402Z,26.23
2019-01-10T08:53:38.830Z,23.30
2019-01-10T08:56:09.546Z,26.03
2019-01-10T08:58:41.533Z,25.70
2019-01-10T09:01:13.497Z,25.93
2019-01-10T09:03:44.653Z,26.27
2019-01-10T09:06:15.465Z,29.80
2019-01-10T09:08:47.555Z,36.73
2019-01-10T09:11:19.570Z,30.23
2019-01-10T09:13:51.749Z,28.73
2019-01-10T09:16:23.641Z,27.07
2019-01-10T09:18:55.461Z,31.27
2019-01-10T09:21:26.239Z,28.60
2019-01-10T09:23:57.100Z,31.60
2019-01-10T09:26:29.430Z,26.17
2019-01-10T09:29:01.591Z,26.20
2019-01-10T09:31:34.565Z,28.53
2019-01-10T09:34:06.668Z,27.13
2019-01-10T09:36:38.312Z,29.13
2019-01-10T09:39:09.914Z,24.83
2019-01-10T09:41:41.726Z,26.43
2019-01-10T09:44:13.669Z,21.07
2019-01-10T09:46:44.741Z,28.70
2019-01-10T09:49:17.851Z,27.60
2019-01-10T09:51:48.374Z,29.43
2019-01-10T09:54:18.918Z,25.87
2019-01-10T09:56:49.624Z,25.00
2019-01-10T09:59:20.274Z,26.33
2019-01-10T10:01:50.784Z,28.10
2019-01-10T10:04:21.658Z,26.23
2019-01-10T10:06:52.448Z,25.70
2019-01-10T10:09:24.694Z,26.50
2019-01-10T10:11:57.007Z,31.23
2019-01-10T10:14:31.705Z,26.17
2019-01-10T10:17:03.857Z,27.97
2019-01-10T10:19:35.267Z,29.07
2019-01-10T10:22:06.119Z,31.53
2019-01-10T10:24:36.783Z,24.77
2019-01-10T10:27:07.961Z,25.80
2019-01-10T10:29:38.406Z,24.97
2019-01-10T10:32:09.080Z,22.57
2019-01-10T10:34:41.994Z,26.37
2019-01-10T10:37:14.992Z,22.70
2019-01-10T10:39:47.008Z,28.10
2019-01-10T10:42:17.570Z,24.90
2019-01-10T10:44:47.978Z,23.70
2019-01-10T10:47:18.609Z,25.07
2019-01-10T10:49:49.241Z,30.27
2019-01-10T10:52:19.825Z,23.70
2019-01-10T10:54:50.500Z,25.67
2019-01-10T10:57:21.913Z,26.60
2019-01-10T10:59:54.959Z,23.47
2019-01-10T11:02:28.145Z,25.50
2019-01-10T11:04:59.136Z,26.50
2019-01-10T11:07:30.221Z,28.43
2019-01-10T11:10:03.059Z,24.47
2019-01-10T11:12:34.065Z,28.30
2019-01-10T11:15:06.280Z,23.27
2019-01-10T11:17:38.505Z,23.13
2019-01-10T11:20:12.129Z,24.53
2019-01-10T11:22:42.953Z,21.83
2019-01-10T11:25:16.059Z,24.67
2019-01-10T11:27:47.092Z,24.87
2019-01-10T11:30:19.012Z,19.80
2019-01-10T11:32:53.690Z,26.73
2019-01-10T11:35:25.137Z,19.17
2019-01-10T11:37:56.256Z,23.33
2019-01-10T11:40:27.214Z,21.27
2019-01-10T11:42:58.155Z,23.07
2019-01-10T11:45:29.646Z,22.83
2019-01-10T11:48:01.250Z,22.50
2019-01-10T11:50:31.612Z,18.90
2019-01-10T11:53:03.809Z,25.17
2019-01-10T11:55:36.200Z,17.97
2019-01-10T11:58:06.777Z,23.40
2019-01-10T12:00:37.359Z,23.13
2019-01-10T12:03:08.668Z,19.90
2019-01-10T12:05:47.503Z,26.07
2019-01-10T12:08:15.404Z,23.00
2019-01-10T12:10:48.410Z,22.80
2019-01-10T12:13:19.331Z,21.40
2019-01-10T12:15:52.330Z,23.57
2019-01-10T12:18:23.273Z,25.33
2019-01-10T12:20:54.329Z,23.60
2019-01-10T12:23:25.431Z,23.47
2019-01-10T12:25:58.371Z,24.33
2019-01-10T12:28:29.429Z,19.17
2019-01-10T12:30:59.833Z,18.97
2019-01-10T12:33:30.322Z,24.43
2019-01-10T12:36:01.116Z,27.13
2019-01-10T12:38:31.487Z,23.83
2019-01-10T12:41:02.562Z,22.53
2019-01-10T12:43:33.274Z,22.60
2019-01-10T12:46:05.975Z,26.40
2019-01-10T12:48:37.530Z,26.40
2019-01-10T12:51:10.444Z,22.90
2019-01-10T12:53:41.481Z,25.90
2019-01-10T12:56:12.870Z,26.80
2019-01-10T12:58:44.458Z,24.77
2019-01-10T13:01:16.535Z,22.73
2019-01-10T13:03:48.582Z,26.20
2019-01-10T13:06:20.568Z,28.10
2019-01-10T13:08:51.689Z,24.77
2019-01-10T13:11:23.237Z,25.40
2019-01-10T13:13:55.725Z,22.50
2019-01-10T13:16:26.626Z,22.83
2019-01-10T13:18:57.468Z,25.20
2019-01-10T13:21:27.992Z,25.77
2019-01-10T13:24:00.254Z,27.60
2019-01-10T13:26:30.938Z,21.83
2019-01-10T13:29:02.707Z,25.77
2019-01-10T13:31:33.630Z,24.97
2019-01-10T13:34:04.807Z,25.23
2019-01-10T13:36:37.641Z,25.97
2019-01-10T13:39:10.217Z,31.20
2019-01-10T13:41:41.803Z,20.87
2019-01-10T13:44:12.953Z,31.47
2019-01-10T13:46:43.460Z,28.00
2019-01-10T13:49:15.876Z,24.77
2019-01-10T13:51:47.819Z,26.37
2019-01-10T13:54:19.868Z,21.90
2019-01-10T13:56:50.822Z,23.30
2019-01-10T13:59:23.893Z,24.83
2019-01-10T14:01:55.027Z,25.43
2019-01-10T14:04:25.401Z,24.43
2019-01-10T14:06:57.688Z,21.27
2019-01-10T14:09:28.842Z,18.03
2019-01-10T14:12:00.024Z,14.47
2019-01-10T14:14:31.006Z,19.33
2019-01-10T14:17:05.757Z,14.10
2019-01-10T14:19:37.982Z,17.00
2019-01-10T14:22:09.028Z,14.60
2019-01-10T14:24:39.433Z,16.17
2019-01-10T14:27:10.006Z,13.17
2019-01-10T14:29:41.924Z,13.50
2019-01-10T14:32:13.917Z,15.30
2019-01-10T14:34:45.073Z,12.93
2019-01-10T14:37:16.072Z,15.73
2019-01-10T14:39:48.020Z,13.07
2019-01-10T14:42:20.191Z,17.80
2019-01-10T14:44:50.904Z,15.47
2019-01-10T14:47:21.731Z,14.27
2019-01-10T14:49:52.508Z,15.33
2019-01-10T14:52:22.997Z,15.30
2019-01-10T14:54:54.071Z,17.20
2019-01-10T14:57:24.808Z,18.90
2019-01-10T14:59:55.710Z,15.63
2019-01-10T15:02:26.539Z,16.17
2019-01-10T15:04:57.005Z,18.17
2019-01-10T15:07:27.568Z,16.97
2019-01-10T15:09:58.188Z,15.77
2019-01-10T15:12:28.798Z,16.00
2019-01-10T15:14:59.219Z,18.50
2019-01-10T15:17:30.225Z,18.90
2019-01-10T15:20:00.710Z,14.33
2019-01-10T15:22:31.926Z,15.87
2019-01-10T15:25:04.020Z,16.13
2019-01-10T15:27:35.215Z,15.67
2019-01-10T15:30:09.389Z,16.83
2019-01-10T15:32:41.468Z,16.53
2019-01-10T15:35:13.730Z,14.60
2019-01-10T15:37:45.311Z,28.50
2019-01-10T15:40:19.876Z,20.43
2019-01-10T15:42:51.817Z,16.23
2019-01-10T15:45:22.445Z,20.27
2019-01-10T15:47:53.058Z,16.83
2019-01-10T15:50:23.925Z,15.90
2019-01-10T15:52:54.556Z,15.97
2019-01-10T15:55:25.326Z,16.63
2019-01-10T15:57:56.081Z,15.23
2019-01-10T16:00:26.944Z,16.03
2019-01-10T16:02:57.415Z,16.57
2019-01-10T16:05:28.329Z,16.53
2019-01-10T16:07:59.345Z,15.10
2019-01-10T16:10:29.895Z,16.10
2019-01-10T16:13:00.331Z,18.50
2019-01-10T16:15:31.071Z,16.90
2019-01-10T16:18:01.777Z,15.30
2019-01-10T16:20:32.387Z,17.47
2019-01-10T16:23:02.948Z,16.67
2019-01-10T16:25:33.474Z,15.60
2019-01-10T16:28:04.206Z,14.13
2019-01-10T16:30:35.412Z,15.10
2019-01-10T16:33:05.802Z,17.47
2019-01-10T16:35:36.166Z,13.00
2019-01-10T16:38:06.553Z,16.30
2019-01-10T16:40:38.452Z,14.20
2019-01-10T16:43:12.027Z,15.93
2019-01-10T16:45:42.721Z,17.53
2019-01-10T16:48:15.567Z,14.63
2019-01-10T16:50:46.501Z,12.53
2019-01-10T16:53:19.553Z,14.43
2019-01-10T16:55:50.647Z,13.13
2019-01-10T16:58:21.595Z,13.90
2019-01-10T17:00:52.570Z,14.33
2019-01-10T17:03:24.833Z,12.07
2019-01-10T17:05:57.676Z,13.17
2019-01-10T17:08:30.632Z,12.87
2019-01-10T17:11:01.679Z,12.63
2019-01-10T17:13:32.428Z,15.53
2019-01-10T17:16:02.980Z,13.77
2019-01-10T17:18:33.468Z,13.40
2019-01-10T17:21:04.623Z,13.10
2019-01-10T17:23:35.013Z,11.97
2019-01-10T17:26:05.438Z,12.33
2019-01-10T17:28:35.918Z,9.47
2019-01-10T17:31:06.698Z,13.60
2019-01-10T17:33:37.194Z,11.03
2019-01-10T17:36:07.764Z,10.53
2019-01-10T17:38:38.382Z,9.60
2019-01-10T17:41:09.083Z,9.80
2019-01-10T17:43:39.483Z,10.40
2019-01-10T17:46:10.560Z,11.23
2019-01-10T17:48:41.217Z,11.70
2019-01-10T17:51:11.879Z,9.80
2019-01-10T17:53:42.659Z,12.03
2019-01-10T17:56:13.332Z,11.30
2019-01-10T17:58:43.900Z,11.80
2019-01-10T18:01:14.598Z,9.33
2019-01-10T18:03:45.192Z,12.20
2019-01-10T18:06:15.924Z,11.93
2019-01-10T18:08:46.449Z,10.50
2019-01-10T18:11:17.057Z,12.53
2019-01-10T18:13:47.788Z,16.30
2019-01-10T18:16:18.539Z,12.43
2019-01-10T18:18:49.240Z,13.40
2019-01-10T18:21:19.948Z,10.60
2019-01-10T18:23:50.297Z,11.07
2019-01-10T18:26:20.826Z,12.67
2019-01-10T18:28:52.136Z,10.70
2019-01-10T18:31:25.099Z,12.10
2019-01-10T18:33:58.056Z,11.50
2019-01-10T18:36:29.109Z,12.13
2019-01-10T18:39:02.115Z,15.60
2019-01-10T18:41:33.223Z,12.83
2019-01-10T18:44:06.096Z,10.90
2019-01-10T18:46:37.174Z,16.57
2019-01-10T18:49:10.142Z,14.50
2019-01-10T18:51:40.960Z,13.67
2019-01-10T18:54:11.519Z,14.37
2019-01-10T18:56:42.075Z,11.43
2019-01-10T18:59:12.687Z,15.13
2019-01-10T19:01:43.343Z,11.87
2019-01-10T19:04:13.979Z,12.97
2019-01-10T19:06:44.561Z,12.43
2019-01-10T19:09:15.094Z,13.10
2019-01-10T19:11:45.756Z,11.30
2019-01-10T19:14:16.186Z,12.43
2019-01-10T19:16:48.313Z,15.43
2019-01-10T19:19:20.325Z,13.67
2019-01-10T19:21:51.212Z,10.57
2019-01-10T19:24:22.276Z,11.67
2019-01-10T19:26:55.283Z,11.17
2019-01-10T19:29:26.293Z,15.80
2019-01-10T19:31:57.265Z,11.70
2019-01-10T19:34:28.278Z,13.57
2019-01-10T19:36:59.240Z,15.23
2019-01-10T19:39:32.239Z,18.00
2019-01-10T19:42:03.402Z,14.80
2019-01-10T19:44:36.292Z,12.90
2019-01-10T19:47:07.510Z,13.30
2019-01-10T19:49:40.667Z,12.90
2019-01-10T19:52:11.429Z,16.03
2019-01-10T19:54:41.927Z,16.40
2019-01-10T19:57:12.406Z,15.73
2019-01-10T19:59:43.146Z,17.40
2019-01-10T20:02:13.704Z,12.53
2019-01-10T20:04:45.885Z,15.00
2019-01-10T20:07:17.235Z,12.40
2019-01-10T20:09:51.643Z,13.70
2019-01-10T20:12:22.438Z,11.83
2019-01-10T20:14:55.464Z,11.50
2019-01-10T20:17:26.361Z,16.13
2019-01-10T20:19:59.476Z,13.00
2019-01-10T20:22:30.576Z,15.77
2019-01-10T20:25:03.545Z,13.73
2019-01-10T20:27:35.217Z,13.07
2019-01-10T20:30:06.047Z,11.83
2019-01-10T20:32:36.524Z,13.43
2019-01-10T20:35:08.092Z,15.90
2019-01-10T20:37:38.487Z,13.20
2019-01-10T20:40:09.936Z,13.30
2019-01-10T20:42:42.591Z,10.00
2019-01-10T20:45:13.713Z,11.83
2019-01-10T20:47:44.594Z,13.07
2019-01-10T20:50:15.920Z,11.20
2019-01-10T20:52:48.732Z,11.50
2019-01-10T20:55:20.469Z,12.07
2019-01-10T20:57:52.812Z,8.20
2019-01-10T21:00:24.249Z,9.83
2019-01-10T21:02:56.600Z,9.37
2019-01-10T21:05:27.780Z,11.50
2019-01-10T21:08:00.757Z,9.50
2019-01-10T21:10:31.681Z,9.40
2019-01-10T21:13:02.164Z,8.47
2019-01-10T21:15:32.847Z,7.80
2019-01-10T21:18:03.395Z,8.80
2019-01-10T21:20:33.797Z,11.50
2019-01-10T21:23:04.685Z,9.87
2019-01-10T21:25:35.382Z,11.00
2019-01-10T21:28:05.892Z,10.83
2019-01-10T21:30:36.583Z,11.37
2019-01-10T21:33:07.028Z,10.47
2019-01-10T21:35:37.916Z,11.20
2019-01-10T21:38:08.745Z,11.90
2019-01-10T21:40:39.133Z,12.83
2019-01-10T21:43:10.140Z,11.73
2019-01-10T21:45:41.002Z,11.60
2019-01-10T21:48:12.117Z,10.40
2019-01-10T21:50:42.587Z,16.70
2019-01-10T21:53:13.004Z,12.07
2019-01-10T21:55:44.251Z,11.67
2019-01-10T21:58:14.959Z,12.50
2019-01-10T22:00:45.412Z,8.37
2019-01-10T22:03:16.759Z,9.17
2019-01-10T22:05:49.823Z,9.97
2019-01-10T22:08:20.331Z,13.90
2019-01-10T22:10:53.289Z,20.13
2019-01-10T22:13:23.920Z,10.87
2019-01-10T22:15:54.946Z,10.60
2019-01-10T22:18:25.344Z,9.07
2019-01-10T22:20:56.907Z,8.17
2019-01-10T22:23:27.606Z,5.83
2019-01-10T22:26:00.475Z,7.63
2019-01-10T22:28:31.058Z,9.33
2019-01-10T22:31:04.041Z,12.37
2019-01-10T22:33:35.103Z,5.23
2019-01-10T22:36:08.185Z,8.07
2019-01-10T22:38:39.206Z,7.10
2019-01-10T22:41:10.088Z,5.13
2019-01-10T22:43:40.807Z,6.00
2019-01-10T22:46:11.610Z,5.43
2019-01-10T22:48:47.727Z,5.40
2019-01-10T22:51:16.075Z,3.93
2019-01-10T22:53:49.206Z,5.33
2019-01-10T22:56:20.363Z,5.43
2019-01-10T22:58:51.150Z,5.53
2019-01-10T23:01:56.528Z,3.87
2019-01-10T23:04:33.297Z,3.73
2019-01-10T23:07:26.502Z,3.23
2019-01-10T23:10:05.948Z,5.33
2019-01-10T23:12:37.435Z,4.20
2019-01-10T23:15:34.599Z,5.40
2019-01-10T23:18:06.230Z,3.77
2019-01-10T23:20:39.393Z,4.40
2019-01-10T23:23:12.354Z,4.00
2019-01-10T23:25:43.224Z,2.43
2019-01-10T23:28:16.256Z,3.37
2019-01-10T23:30:51.349Z,3.20
2019-01-10T23:33:23.646Z,4.77
2019-01-10T23:36:01.888Z,3.20
2019-01-10T23:38:33.201Z,2.90
2019-01-10T23:41:04.497Z,3.07
2019-01-10T23:43:35.340Z,3.57
2019-01-10T23:46:06.335Z,2.67
2019-01-10T23:48:39.444Z,4.50
2019-01-10T23:51:10.854Z,2.20
2019-01-10T23:53:42.406Z,2.23
2019-01-10T23:56:13.379Z,2.53
2019-01-10T23:58:45.511Z,3.70
